sensor_id;sensor_type;location;lat;lon;timestamp;pressure;altitude;pressure_sealevel;temperature;humidity
59043;BME280;44826;51.596;5.624;2023-03-04T00:01:17;102548.63;;;4.35;71.98
59043;BME280;44826;51.596;5.624;2023-03-04T00:03:43;102547.75;;;4.36;72.19
59043;BME280;44826;51.596;5.624;2023-03-04T00:06:08;102558.13;;;4.37;72.36
59043;BME280;44826;51.596;5.624;2023-03-04T00:08:34;102554.72;;;4.38;71.74
59043;BME280;44826;51.596;5.624;2023-03-04T00:10:59;102552.97;;;4.37;72.29
59043;BME280;44826;51.596;5.624;2023-03-04T00:13:24;102553.81;;;4.36;72.40
59043;BME280;44826;51.596;5.624;2023-03-04T00:15:50;102550.41;;;4.37;72.20
59043;BME280;44826;51.596;5.624;2023-03-04T00:18:16;102554.66;;;4.37;72.18
59043;BME280;44826;51.596;5.624;2023-03-04T00:20:41;102553.81;;;4.36;72.17
59043;BME280;44826;51.596;5.624;2023-03-04T00:23:07;102546.06;;;4.36;72.48
59043;BME280;44826;51.596;5.624;2023-03-04T00:25:32;102544.34;;;4.37;72.27
59043;BME280;44826;51.596;5.624;2023-03-04T00:27:58;102552.09;;;4.37;72.64
59043;BME280;44826;51.596;5.624;2023-03-04T00:30:23;102540.94;;;4.36;72.15
59043;BME280;44826;51.596;5.624;2023-03-04T00:32:49;102543.50;;;4.36;72.37
59043;BME280;44826;51.596;5.624;2023-03-04T00:35:14;102546.94;;;4.37;72.63
59043;BME280;44826;51.596;5.624;2023-03-04T00:37:39;102544.31;;;4.35;72.53
59043;BME280;44826;51.596;5.624;2023-03-04T00:40:06;102544.31;;;4.35;73.04
59043;BME280;44826;51.596;5.624;2023-03-04T00:42:31;102538.31;;;4.35;72.47
59043;BME280;44826;51.596;5.624;2023-03-04T00:44:57;102545.16;;;4.34;72.56
59043;BME280;44826;51.596;5.624;2023-03-04T00:47:22;102539.09;;;4.32;72.52
59043;BME280;44826;51.596;5.624;2023-03-04T00:49:47;102539.09;;;4.32;72.98
59043;BME280;44826;51.596;5.624;2023-03-04T00:52:12;102546.81;;;4.32;73.10
59043;BME280;44826;51.596;5.624;2023-03-04T00:54:38;102539.06;;;4.31;73.15
59043;BME280;44826;51.596;5.624;2023-03-04T00:57:03;102546.78;;;4.31;72.68
59043;BME280;44826;51.596;5.624;2023-03-04T00:59:28;102546.78;;;4.31;72.28
59043;BME280;44826;51.596;5.624;2023-03-04T01:01:53;102546.72;;;4.29;72.73
59043;BME280;44826;51.596;5.624;2023-03-04T01:04:19;102544.22;;;4.31;72.35
59043;BME280;44826;51.596;5.624;2023-03-04T01:06:44;102542.41;;;4.28;72.58
59043;BME280;44826;51.596;5.624;2023-03-04T01:09:09;102540.66;;;4.27;72.55
59043;BME280;44826;51.596;5.624;2023-03-04T01:11:35;102550.97;;;4.27;72.46
59043;BME280;44826;51.596;5.624;2023-03-04T01:14:00;102548.38;;;4.27;72.72
59043;BME280;44826;51.596;5.624;2023-03-04T01:16:25;102544.94;;;4.27;72.30
59043;BME280;44826;51.596;5.624;2023-03-04T01:18:50;102550.97;;;4.27;72.08
59043;BME280;44826;51.596;5.624;2023-03-04T01:21:16;102544.09;;;4.26;72.09
59043;BME280;44826;51.596;5.624;2023-03-04T01:23:41;102543.16;;;4.24;72.15
59043;BME280;44826;51.596;5.624;2023-03-04T01:26:06;102547.50;;;4.25;71.74
59043;BME280;44826;51.596;5.624;2023-03-04T01:28:32;102544.84;;;4.23;71.88
59043;BME280;44826;51.596;5.624;2023-03-04T01:31:01;102543.16;;;4.24;72.22
59043;BME280;44826;51.596;5.624;2023-03-04T01:33:26;102544.91;;;4.25;72.33
59043;BME280;44826;51.596;5.624;2023-03-04T01:35:52;102535.50;;;4.27;72.56
59043;BME280;44826;51.596;5.624;2023-03-04T01:38:17;102532.09;;;4.28;72.60
59043;BME280;44826;51.596;5.624;2023-03-04T01:40:42;102530.41;;;4.29;72.80
59043;BME280;44826;51.596;5.624;2023-03-04T01:43:31;102528.69;;;4.29;72.45
59043;BME280;44826;51.596;5.624;2023-03-04T01:45:57;102535.59;;;4.30;72.92
59043;BME280;44826;51.596;5.624;2023-03-04T01:48:28;102527.03;;;4.31;73.06
59043;BME280;44826;51.596;5.624;2023-03-04T01:50:55;102527.00;;;4.30;73.35
59043;BME280;44826;51.596;5.624;2023-03-04T01:53:23;102520.13;;;4.30;72.78
59043;BME280;44826;51.596;5.624;2023-03-04T01:55:51;102514.06;;;4.28;73.31
59043;BME280;44826;51.596;5.624;2023-03-04T01:58:17;102521.78;;;4.28;72.63
59043;BME280;44826;51.596;5.624;2023-03-04T02:00:42;102512.31;;;4.27;72.69
59043;BME280;44826;51.596;5.624;2023-03-04T02:03:12;102508.03;;;4.28;73.22
59043;BME280;44826;51.596;5.624;2023-03-04T02:05:42;102511.47;;;4.28;73.08
59043;BME280;44826;51.596;5.624;2023-03-04T02:08:08;102508.91;;;4.28;72.91
59043;BME280;44826;51.596;5.624;2023-03-04T02:10:34;102502.06;;;4.29;72.67
59043;BME280;44826;51.596;5.624;2023-03-04T02:13:00;102499.44;;;4.27;73.38
59043;BME280;44826;51.596;5.624;2023-03-04T02:15:28;102502.00;;;4.27;73.31
59043;BME280;44826;51.596;5.624;2023-03-04T02:17:53;102490.81;;;4.25;72.89
59043;BME280;44826;51.596;5.624;2023-03-04T02:23:25;102494.25;;;4.25;73.35
59043;BME280;44826;51.596;5.624;2023-03-04T02:28:32;102490.72;;;4.22;73.36
59043;BME280;44826;51.596;5.624;2023-03-04T02:30:57;102486.44;;;4.22;73.36
59043;BME280;44826;51.596;5.624;2023-03-04T02:33:23;102488.16;;;4.22;73.51
59043;BME280;44826;51.596;5.624;2023-03-04T02:35:48;102484.75;;;4.23;73.36
59043;BME280;44826;51.596;5.624;2023-03-04T02:38:13;102481.28;;;4.22;73.24
59043;BME280;44826;51.596;5.624;2023-03-04T02:40:41;102485.56;;;4.22;73.44
59043;BME280;44826;51.596;5.624;2023-03-04T02:43:10;102487.31;;;4.23;73.35
59043;BME280;44826;51.596;5.624;2023-03-04T02:45:42;102478.75;;;4.24;73.33
59043;BME280;44826;51.596;5.624;2023-03-04T02:48:09;102477.84;;;4.22;73.47
59043;BME280;44826;51.596;5.624;2023-03-04T02:50:41;102476.19;;;4.24;73.55
59043;BME280;44826;51.596;5.624;2023-03-04T02:53:07;102477.88;;;4.23;73.34
59043;BME280;44826;51.596;5.624;2023-03-04T02:55:32;102473.59;;;4.24;73.41
59043;BME280;44826;51.596;5.624;2023-03-04T02:57:58;102472.78;;;4.25;73.38
59043;BME280;44826;51.596;5.624;2023-03-04T03:00:24;102471.03;;;4.24;74.09
59043;BME280;44826;51.596;5.624;2023-03-04T03:02:49;102471.06;;;4.25;74.07
59043;BME280;44826;51.596;5.624;2023-03-04T03:05:15;102470.19;;;4.25;73.71
59043;BME280;44826;51.596;5.624;2023-03-04T03:07:41;102465.06;;;4.25;73.78
59043;BME280;44826;51.596;5.624;2023-03-04T03:10:06;102468.47;;;4.24;73.71
59043;BME280;44826;51.596;5.624;2023-03-04T03:12:32;102458.09;;;4.22;74.20
59043;BME280;44826;51.596;5.624;2023-03-04T03:14:57;102465.81;;;4.22;74.14
59043;BME280;44826;51.596;5.624;2023-03-04T03:17:22;102457.22;;;4.22;74.00
59043;BME280;44826;51.596;5.624;2023-03-04T03:19:47;102460.63;;;4.21;73.63
59043;BME280;44826;51.596;5.624;2023-03-04T03:22:13;102464.06;;;4.21;73.73
59043;BME280;44826;51.596;5.624;2023-03-04T03:24:38;102460.63;;;4.21;73.88
59043;BME280;44826;51.596;5.624;2023-03-04T03:27:03;102457.19;;;4.20;73.93
59043;BME280;44826;51.596;5.624;2023-03-04T03:29:29;102457.19;;;4.20;73.73
59043;BME280;44826;51.596;5.624;2023-03-04T03:31:54;102453.78;;;4.21;73.83
59043;BME280;44826;51.596;5.624;2023-03-04T03:34:21;102453.78;;;4.21;74.13
59043;BME280;44826;51.596;5.624;2023-03-04T03:36:46;102452.91;;;4.21;74.37
59043;BME280;44826;51.596;5.624;2023-03-04T03:39:11;102458.06;;;4.21;74.27
59043;BME280;44826;51.596;5.624;2023-03-04T03:41:36;102449.44;;;4.20;74.27
59043;BME280;44826;51.596;5.624;2023-03-04T03:44:02;102453.00;;;4.24;74.27
59043;BME280;44826;51.596;5.624;2023-03-04T03:46:27;102450.38;;;4.22;74.75
59043;BME280;44826;51.596;5.624;2023-03-04T03:48:53;102452.09;;;4.22;74.90
59043;BME280;44826;51.596;5.624;2023-03-04T03:51:19;102444.34;;;4.22;75.24
59043;BME280;44826;51.596;5.624;2023-03-04T03:53:44;102449.50;;;4.22;75.34
59043;BME280;44826;51.596;5.624;2023-03-04T03:56:09;102445.22;;;4.22;75.43
59043;BME280;44826;51.596;5.624;2023-03-04T03:58:34;102448.63;;;4.21;75.40
59043;BME280;44826;51.596;5.624;2023-03-04T04:01:00;102447.78;;;4.22;75.13
59043;BME280;44826;51.596;5.624;2023-03-04T04:03:25;102450.38;;;4.22;75.31
59043;BME280;44826;51.596;5.624;2023-03-04T04:05:50;102445.22;;;4.22;75.43
59043;BME280;44826;51.596;5.624;2023-03-04T04:08:16;102444.34;;;4.22;75.70
59043;BME280;44826;51.596;5.624;2023-03-04T04:10:42;102451.25;;;4.23;75.58
59043;BME280;44826;51.596;5.624;2023-03-04T04:13:08;102449.50;;;4.22;75.56
59043;BME280;44826;51.596;5.624;2023-03-04T04:15:34;102452.94;;;4.22;75.93
59043;BME280;44826;51.596;5.624;2023-03-04T04:18:00;102454.66;;;4.22;75.75
59043;BME280;44826;51.596;5.624;2023-03-04T04:20:26;102453.78;;;4.21;75.41
59043;BME280;44826;51.596;5.624;2023-03-04T04:22:51;102454.59;;;4.20;75.31
59043;BME280;44826;51.596;5.624;2023-03-04T04:25:16;102452.00;;;4.19;74.53
59043;BME280;44826;51.596;5.624;2023-03-04T04:27:41;102444.25;;;4.17;73.88
59043;BME280;44826;51.596;5.624;2023-03-04T04:30:07;102449.31;;;4.16;73.54
59043;BME280;44826;51.596;5.624;2023-03-04T04:32:33;102453.63;;;4.15;73.32
59043;BME280;44826;51.596;5.624;2023-03-04T04:34:58;102454.47;;;4.16;73.44
59043;BME280;44826;51.596;5.624;2023-03-04T04:37:23;102445.84;;;4.14;73.20
59043;BME280;44826;51.596;5.624;2023-03-04T04:39:48;102459.63;;;4.16;73.52
59043;BME280;44826;51.596;5.624;2023-03-04T04:42:16;102457.03;;;4.14;73.82
59043;BME280;44826;51.596;5.624;2023-03-04T04:44:41;102450.13;;;4.13;72.40
59043;BME280;44826;51.596;5.624;2023-03-04T04:47:06;102459.53;;;4.13;73.04
59043;BME280;44826;51.596;5.624;2023-03-04T04:49:32;102464.69;;;4.13;72.92
59043;BME280;44826;51.596;5.624;2023-03-04T04:51:57;102461.28;;;4.14;72.82
59043;BME280;44826;51.596;5.624;2023-03-04T04:54:22;102458.63;;;4.10;72.66
59043;BME280;44826;51.596;5.624;2023-03-04T04:56:48;102462.94;;;4.12;72.92
59043;BME280;44826;51.596;5.624;2023-03-04T04:59:14;102462.13;;;4.13;71.67
59043;BME280;44826;51.596;5.624;2023-03-04T05:01:39;102466.34;;;4.10;72.10
59043;BME280;44826;51.596;5.624;2023-03-04T05:04:05;102465.53;;;4.12;72.37
59043;BME280;44826;51.596;5.624;2023-03-04T05:06:30;102460.38;;;4.12;72.50
59043;BME280;44826;51.596;5.624;2023-03-04T05:08:55;102456.94;;;4.11;72.02
59043;BME280;44826;51.596;5.624;2023-03-04T05:11:21;102462.09;;;4.11;71.99
59043;BME280;44826;51.596;5.624;2023-03-04T05:13:47;102464.63;;;4.09;72.59
59043;BME280;44826;51.596;5.624;2023-03-04T05:16:14;102461.19;;;4.10;72.57
59043;BME280;44826;51.596;5.624;2023-03-04T05:18:39;102458.59;;;4.09;72.31
59043;BME280;44826;51.596;5.624;2023-03-04T05:21:05;102466.34;;;4.10;72.46
59043;BME280;44826;51.596;5.624;2023-03-04T05:23:33;102462.06;;;4.09;72.23
59043;BME280;44826;51.596;5.624;2023-03-04T05:25:59;102455.22;;;4.12;72.00
59043;BME280;44826;51.596;5.624;2023-03-04T05:28:24;102459.50;;;4.11;72.04
59043;BME280;44826;51.596;5.624;2023-03-04T05:30:50;102452.66;;;4.12;72.38
59043;BME280;44826;51.596;5.624;2023-03-04T05:33:16;102456.06;;;4.10;72.74
59043;BME280;44826;51.596;5.624;2023-03-04T05:35:42;102456.94;;;4.11;72.91
59043;BME280;44826;51.596;5.624;2023-03-04T05:38:11;102457.81;;;4.12;72.80
59043;BME280;44826;51.596;5.624;2023-03-04T05:40:37;102459.53;;;4.13;73.08
59043;BME280;44826;51.596;5.624;2023-03-04T05:43:03;102463.84;;;4.12;73.00
59043;BME280;44826;51.596;5.624;2023-03-04T05:45:28;102456.06;;;4.10;72.97
59043;BME280;44826;51.596;5.624;2023-03-04T05:47:54;102460.34;;;4.10;73.35
59043;BME280;44826;51.596;5.624;2023-03-04T05:50:20;102463.78;;;4.10;73.10
59043;BME280;44826;51.596;5.624;2023-03-04T05:52:47;102466.34;;;4.10;73.42
59043;BME280;44826;51.596;5.624;2023-03-04T05:55:12;102471.50;;;4.10;73.58
59043;BME280;44826;51.596;5.624;2023-03-04T05:57:38;102476.66;;;4.10;74.11
59043;BME280;44826;51.596;5.624;2023-03-04T06:00:04;102464.63;;;4.09;74.35
59043;BME280;44826;51.596;5.624;2023-03-04T06:02:34;102471.50;;;4.10;74.63
59043;BME280;44826;51.596;5.624;2023-03-04T06:04:59;102471.38;;;4.06;75.15
59043;BME280;44826;51.596;5.624;2023-03-04T06:07:24;102471.34;;;4.04;75.81
59043;BME280;44826;51.596;5.624;2023-03-04T06:09:49;102468.78;;;4.04;75.69
59043;BME280;44826;51.596;5.624;2023-03-04T06:12:15;102473.00;;;4.02;75.73
59043;BME280;44826;51.596;5.624;2023-03-04T06:14:40;102472.13;;;4.02;76.46
59043;BME280;44826;51.596;5.624;2023-03-04T06:17:05;102473.00;;;4.02;75.88
59043;BME280;44826;51.596;5.624;2023-03-04T06:19:30;102469.59;;;4.03;75.89
59043;BME280;44826;51.596;5.624;2023-03-04T06:21:56;102474.66;;;4.00;76.44
59043;BME280;44826;51.596;5.624;2023-03-04T06:24:21;102476.41;;;4.01;76.75
59043;BME280;44826;51.596;5.624;2023-03-04T06:26:46;102477.25;;;4.00;76.58
59043;BME280;44826;51.596;5.624;2023-03-04T06:29:12;102482.44;;;4.02;76.42
59043;BME280;44826;51.596;5.624;2023-03-04T06:31:38;102479.00;;;4.01;76.62
59043;BME280;44826;51.596;5.624;2023-03-04T06:34:08;102486.69;;;4.00;76.75
59043;BME280;44826;51.596;5.624;2023-03-04T06:36:34;102478.91;;;3.98;76.72
59043;BME280;44826;51.596;5.624;2023-03-04T06:39:02;102488.34;;;3.98;77.24
59043;BME280;44826;51.596;5.624;2023-03-04T06:41:28;102492.59;;;3.97;77.31
59043;BME280;44826;51.596;5.624;2023-03-04T06:43:53;102490.03;;;3.97;76.54
59043;BME280;44826;51.596;5.624;2023-03-04T06:46:18;102489.16;;;3.97;76.56
59043;BME280;44826;51.596;5.624;2023-03-04T06:48:44;102492.66;;;3.99;77.05
59043;BME280;44826;51.596;5.624;2023-03-04T06:51:10;102489.25;;;4.00;76.98
59043;BME280;44826;51.596;5.624;2023-03-04T06:53:36;102489.28;;;4.01;76.60
59043;BME280;44826;51.596;5.624;2023-03-04T06:56:02;102492.69;;;4.00;76.56
59043;BME280;44826;51.596;5.624;2023-03-04T06:58:27;102494.44;;;4.01;76.50
59043;BME280;44826;51.596;5.624;2023-03-04T07:00:53;102488.47;;;4.02;77.00
59043;BME280;44826;51.596;5.624;2023-03-04T07:03:18;102494.47;;;4.03;76.94
59043;BME280;44826;51.596;5.624;2023-03-04T07:05:43;102492.78;;;4.03;76.68
59043;BME280;44826;51.596;5.624;2023-03-04T07:08:09;102497.09;;;4.04;77.27
59043;BME280;44826;51.596;5.624;2023-03-04T07:10:34;102496.22;;;4.04;76.99
59043;BME280;44826;51.596;5.624;2023-03-04T07:13:00;102496.28;;;4.05;77.34
59043;BME280;44826;51.596;5.624;2023-03-04T07:15:25;102496.31;;;4.07;77.42
59043;BME280;44826;51.596;5.624;2023-03-04T07:17:50;102495.44;;;4.06;77.65
59043;BME280;44826;51.596;5.624;2023-03-04T07:20:16;102504.09;;;4.08;77.05
59043;BME280;44826;51.596;5.624;2023-03-04T07:22:42;102498.94;;;4.08;77.34
59043;BME280;44826;51.596;5.624;2023-03-04T07:25:07;102498.94;;;4.08;77.61
59043;BME280;44826;51.596;5.624;2023-03-04T07:27:33;102499.81;;;4.09;77.74
59043;BME280;44826;51.596;5.624;2023-03-04T07:29:58;102507.56;;;4.10;77.83
59043;BME280;44826;51.596;5.624;2023-03-04T07:32:23;102511.88;;;4.12;77.65
59043;BME280;44826;51.596;5.624;2023-03-04T07:34:49;102509.41;;;4.15;77.70
59043;BME280;44826;51.596;5.624;2023-03-04T07:37:15;102509.41;;;4.15;77.33
59043;BME280;44826;51.596;5.624;2023-03-04T07:39:40;102512.03;;;4.16;77.49
59043;BME280;44826;51.596;5.624;2023-03-04T07:42:05;102513.78;;;4.17;77.64
59043;BME280;44826;51.596;5.624;2023-03-04T07:44:31;102513.00;;;4.20;77.07
59043;BME280;44826;51.596;5.624;2023-03-04T07:46:56;102520.72;;;4.20;77.97
59043;BME280;44826;51.596;5.624;2023-03-04T07:49:22;102525.13;;;4.24;77.49
59043;BME280;44826;51.596;5.624;2023-03-04T07:51:47;102523.47;;;4.26;77.69
59043;BME280;44826;51.596;5.624;2023-03-04T07:54:12;102530.34;;;4.27;78.07
59043;BME280;44826;51.596;5.624;2023-03-04T07:56:38;102528.69;;;4.29;77.82
59043;BME280;44826;51.596;5.624;2023-03-04T07:59:03;102529.66;;;4.33;77.73
59043;BME280;44826;51.596;5.624;2023-03-04T08:01:32;102532.28;;;4.34;78.04
59043;BME280;44826;51.596;5.624;2023-03-04T08:03:57;102532.41;;;4.39;78.22
59043;BME280;44826;51.596;5.624;2023-03-04T08:06:23;102532.53;;;4.44;78.18
59043;BME280;44826;51.596;5.624;2023-03-04T08:08:49;102527.53;;;4.50;78.74
59043;BME280;44826;51.596;5.624;2023-03-04T08:11:20;102527.72;;;4.56;78.68
59043;BME280;44826;51.596;5.624;2023-03-04T08:13:45;102527.84;;;4.62;78.59
59043;BME280;44826;51.596;5.624;2023-03-04T08:16:12;102529.69;;;4.66;77.76
59043;BME280;44826;51.596;5.624;2023-03-04T08:18:40;102530.63;;;4.70;78.39
59043;BME280;44826;51.596;5.624;2023-03-04T08:21:10;102533.34;;;4.75;78.73
59043;BME280;44826;51.596;5.624;2023-03-04T08:23:37;102536.84;;;4.77;78.33
59043;BME280;44826;51.596;5.624;2023-03-04T08:26:07;102531.75;;;4.80;78.63
59043;BME280;44826;51.596;5.624;2023-03-04T08:28:33;102534.31;;;4.80;78.85
59043;BME280;44826;51.596;5.624;2023-03-04T08:30:59;102538.72;;;4.84;78.74
59043;BME280;44826;51.596;5.624;2023-03-04T08:33:24;102538.91;;;4.90;78.86
59043;BME280;44826;51.596;5.624;2023-03-04T08:35:49;102528.72;;;4.96;77.70
59043;BME280;44826;51.596;5.624;2023-03-04T08:38:15;102539.09;;;4.98;77.59
59043;BME280;44826;51.596;5.624;2023-03-04T08:40:40;102533.94;;;4.99;77.35
59043;BME280;44826;51.596;5.624;2023-03-04T08:43:05;102529.72;;;5.01;77.28
59043;BME280;44826;51.596;5.624;2023-03-04T08:45:31;102540.19;;;5.08;77.39
59043;BME280;44826;51.596;5.624;2023-03-04T08:47:56;102541.22;;;5.16;77.05
59043;BME280;44826;51.596;5.624;2023-03-04T08:50:21;102543.09;;;5.22;76.67
59043;BME280;44826;51.596;5.624;2023-03-04T08:52:47;102537.91;;;5.22;76.58
59043;BME280;44826;51.596;5.624;2023-03-04T08:55:12;102540.66;;;5.28;76.04
59043;BME280;44826;51.596;5.624;2023-03-04T08:57:37;102539.09;;;5.35;75.90
59043;BME280;44826;51.596;5.624;2023-03-04T09:00:03;102540.16;;;5.43;76.10
59043;BME280;44826;51.596;5.624;2023-03-04T09:02:28;102533.38;;;5.48;76.18
59043;BME280;44826;51.596;5.624;2023-03-04T09:04:53;102530.19;;;5.58;76.28
59043;BME280;44826;51.596;5.624;2023-03-04T09:07:19;102533.69;;;5.62;76.32
59043;BME280;44826;51.596;5.624;2023-03-04T09:09:44;102532.13;;;5.69;76.09
59043;BME280;44826;51.596;5.624;2023-03-04T09:12:09;102529.69;;;5.76;76.04
59043;BME280;44826;51.596;5.624;2023-03-04T09:14:35;102525.53;;;5.83;75.33
59043;BME280;44826;51.596;5.624;2023-03-04T09:17:02;102527.28;;;5.84;76.04
59043;BME280;44826;51.596;5.624;2023-03-04T09:19:27;102518.75;;;5.87;75.34
59043;BME280;44826;51.596;5.624;2023-03-04T09:21:53;102520.50;;;5.88;75.26
59043;BME280;44826;51.596;5.624;2023-03-04T09:24:20;102518.00;;;5.94;75.33
59043;BME280;44826;51.596;5.624;2023-03-04T09:26:49;102512.06;;;5.97;75.06
59043;BME280;44826;51.596;5.624;2023-03-04T09:29:14;102519.94;;;6.01;75.30
59043;BME280;44826;51.596;5.624;2023-03-04T09:31:39;102509.66;;;6.04;73.83
59043;BME280;44826;51.596;5.624;2023-03-04T09:34:05;102508.00;;;6.08;74.67
59043;BME280;44826;51.596;5.624;2023-03-04T09:36:30;102508.97;;;6.13;74.41
59043;BME280;44826;51.596;5.624;2023-03-04T09:38:59;102512.25;;;6.06;74.72
59043;BME280;44826;51.596;5.624;2023-03-04T09:41:33;102505.34;;;6.03;74.20
59043;BME280;44826;51.596;5.624;2023-03-04T09:44:05;102502.69;;;6.02;74.52
59043;BME280;44826;51.596;5.624;2023-03-04T09:46:36;102495.91;;;6.05;73.93
59043;BME280;44826;51.596;5.624;2023-03-04T09:49:02;102507.31;;;6.18;74.35
59043;BME280;44826;51.596;5.624;2023-03-04T09:54:17;102510.13;;;6.29;74.54
59043;BME280;44826;51.596;5.624;2023-03-04T09:56:45;102505.78;;;6.27;74.09
59043;BME280;44826;51.596;5.624;2023-03-04T09:59:16;102503.28;;;6.31;74.67
59043;BME280;44826;51.596;5.624;2023-03-04T10:01:51;102504.16;;;6.32;74.55
59043;BME280;44826;51.596;5.624;2023-03-04T10:06:50;102511.03;;;6.33;74.52
59043;BME280;44826;51.596;5.624;2023-03-04T10:09:53;102507.69;;;6.37;74.26
59043;BME280;44826;51.596;5.624;2023-03-04T10:12:22;102507.75;;;6.40;74.35
59043;BME280;44826;51.596;5.624;2023-03-04T10:18:02;102497.53;;;6.48;74.43
59043;BME280;44826;51.596;5.624;2023-03-04T10:20:46;102494.09;;;6.47;74.35
59043;BME280;44826;51.596;5.624;2023-03-04T10:23:20;102499.31;;;6.50;74.44
59043;BME280;44826;51.596;5.624;2023-03-04T10:25:46;102495.03;;;6.52;74.42
59043;BME280;44826;51.596;5.624;2023-03-04T10:28:17;102489.81;;;6.49;73.11
59043;BME280;44826;51.596;5.624;2023-03-04T10:30:58;102493.22;;;6.47;73.50
59043;BME280;44826;51.596;5.624;2023-03-04T10:33:29;102501.72;;;6.41;72.79
59043;BME280;44826;51.596;5.624;2023-03-04T10:38:30;102493.75;;;6.29;73.34
59043;BME280;44826;51.596;5.624;2023-03-04T10:40:57;102497.19;;;6.28;73.83
59043;BME280;44826;51.596;5.624;2023-03-04T10:43:23;102486.78;;;6.25;74.08
59043;BME280;44826;51.596;5.624;2023-03-04T10:45:54;102488.59;;;6.29;74.27
59043;BME280;44826;51.596;5.624;2023-03-04T10:48:23;102490.34;;;6.30;74.59
59043;BME280;44826;51.596;5.624;2023-03-04T10:50:48;102493.84;;;6.35;74.06
59043;BME280;44826;51.596;5.624;2023-03-04T10:53:24;102483.63;;;6.41;74.81
59043;BME280;44826;51.596;5.624;2023-03-04T10:55:52;102482.22;;;6.57;75.51
59043;BME280;44826;51.596;5.624;2023-03-04T10:58:19;102486.88;;;6.78;75.39
59043;BME280;44826;51.596;5.624;2023-03-04T11:00:58;102475.88;;;6.92;73.77
59043;BME280;44826;51.596;5.624;2023-03-04T11:08:39;102469.13;;;7.00;73.18
59043;BME280;44826;51.596;5.624;2023-03-04T11:11:24;102466.53;;;7.00;73.59
59043;BME280;44826;51.596;5.624;2023-03-04T11:13:54;102459.69;;;7.05;74.36
59043;BME280;44826;51.596;5.624;2023-03-04T11:16:28;102454.63;;;7.13;73.44
59043;BME280;44826;51.596;5.624;2023-03-04T11:18:59;102452.06;;;7.14;73.22
59043;BME280;44826;51.596;5.624;2023-03-04T11:21:29;102449.44;;;7.11;72.89
59043;BME280;44826;51.596;5.624;2023-03-04T11:23:58;102451.19;;;7.14;74.29
59043;BME280;44826;51.596;5.624;2023-03-04T11:26:35;102448.66;;;7.19;73.72
59043;BME280;44826;51.596;5.624;2023-03-04T11:29:24;102446.91;;;7.18;73.44
59043;BME280;44826;51.596;5.624;2023-03-04T11:34:38;102436.84;;;7.39;74.60
59043;BME280;44826;51.596;5.624;2023-03-04T11:37:30;102441.28;;;7.48;73.24
59043;BME280;44826;51.596;5.624;2023-03-04T11:40:10;102441.44;;;7.59;74.24
59043;BME280;44826;51.596;5.624;2023-03-04T11:42:53;102433.78;;;7.68;73.14
59043;BME280;44826;51.596;5.624;2023-03-04T11:45:31;102438.13;;;7.71;71.39
59043;BME280;44826;51.596;5.624;2023-03-04T11:48:16;102425.97;;;7.65;71.43
59043;BME280;44826;51.596;5.624;2023-03-04T11:56:49;102422.31;;;7.49;71.87
59043;BME280;44826;51.596;5.624;2023-03-04T11:59:45;102417.94;;;7.42;72.31
59043;BME280;44826;51.596;5.624;2023-03-04T12:02:21;102416.09;;;7.33;73.02
59043;BME280;44826;51.596;5.624;2023-03-04T12:07:42;102398.88;;;7.38;72.97
59043;BME280;44826;51.596;5.624;2023-03-04T12:12:49;102388.59;;;7.46;72.85
59043;BME280;44826;51.596;5.624;2023-03-04T12:19:20;102389.59;;;7.56;72.75
59043;BME280;44826;51.596;5.624;2023-03-04T12:22:02;102393.09;;;7.59;73.11
59043;BME280;44826;51.596;5.624;2023-03-04T12:27:28;102381.78;;;7.50;73.01
59043;BME280;44826;51.596;5.624;2023-03-04T12:33:18;102369.66;;;7.49;73.00
59043;BME280;44826;51.596;5.624;2023-03-04T12:36:10;102356.72;;;7.50;73.13
59043;BME280;44826;51.596;5.624;2023-03-04T12:39:30;102368.16;;;7.66;73.83
59043;BME280;44826;51.596;5.624;2023-03-04T12:41:57;102363.94;;;7.79;73.08
59043;BME280;44826;51.596;5.624;2023-03-04T12:44:26;102354.50;;;7.86;72.42
59043;BME280;44826;51.596;5.624;2023-03-04T12:55:13;102351.78;;;7.73;72.08
59043;BME280;44826;51.596;5.624;2023-03-04T12:57:39;102346.53;;;7.64;73.00
59043;BME280;44826;51.596;5.624;2023-03-04T13:16:51;102327.00;;;7.16;74.87
59043;BME280;44826;51.596;5.624;2023-03-04T13:25:29;102331.81;;;6.89;76.90
59043;BME280;44826;51.596;5.624;2023-03-04T13:32:55;102326.28;;;6.63;80.52
59043;BME280;44826;51.596;5.624;2023-03-04T13:43:50;102322.88;;;6.67;81.72
59043;BME280;44826;51.596;5.624;2023-03-04T13:51:26;102311.94;;;6.87;80.62
59043;BME280;44826;51.596;5.624;2023-03-04T14:01:34;102299.59;;;7.36;79.65
59043;BME280;44826;51.596;5.624;2023-03-04T14:04:07;102291.91;;;7.42;78.98
59043;BME280;44826;51.596;5.624;2023-03-04T14:06:34;102287.63;;;7.44;78.66
59043;BME280;44826;51.596;5.624;2023-03-04T14:09:15;102297.09;;;7.42;78.23
59043;BME280;44826;51.596;5.624;2023-03-04T14:11:41;102292.66;;;7.32;77.96
59043;BME280;44826;51.596;5.624;2023-03-04T14:14:13;102298.63;;;7.25;78.58
59043;BME280;44826;51.596;5.624;2023-03-04T14:16:46;102289.91;;;7.17;77.86
59043;BME280;44826;51.596;5.624;2023-03-04T14:19:17;102299.28;;;7.07;78.13
59043;BME280;44826;51.596;5.624;2023-03-04T14:21:46;102295.75;;;7.00;78.60
59043;BME280;44826;51.596;5.624;2023-03-04T14:24:13;102299.97;;;6.95;79.03
59043;BME280;44826;51.596;5.624;2023-03-04T14:26:39;102289.59;;;6.92;79.14
59043;BME280;44826;51.596;5.624;2023-03-04T14:29:19;102293.03;;;6.91;77.84
59043;BME280;44826;51.596;5.624;2023-03-04T14:31:45;102293.78;;;6.83;78.21
59043;BME280;44826;51.596;5.624;2023-03-04T14:34:23;102280.84;;;6.83;77.94
59043;BME280;44826;51.596;5.624;2023-03-04T14:36:50;102292.06;;;6.84;77.14
59043;BME280;44826;51.596;5.624;2023-03-04T14:39:17;102286.00;;;6.83;76.77
59043;BME280;44826;51.596;5.624;2023-03-04T14:41:44;102277.41;;;6.81;76.64
59043;BME280;44826;51.596;5.624;2023-03-04T14:46:51;102271.38;;;6.84;77.12
59043;BME280;44826;51.596;5.624;2023-03-04T14:49:19;102268.84;;;6.89;77.95